createdAt,value
2022-10-21T00:00:12.199Z,13.80
2022-10-21T00:02:44.559Z,13.70
2022-10-21T00:08:01.022Z,13.60
2022-10-21T00:10:29.045Z,13.40
2022-10-21T00:12:56.930Z,13.30
2022-10-21T00:15:24.841Z,13.20
2022-10-21T00:17:54.075Z,13.20
2022-10-21T00:22:50.788Z,13.10
2022-10-21T00:25:18.837Z,13.10
2022-10-21T00:27:46.731Z,13.20
2022-10-21T00:30:14.658Z,13.10
2022-10-21T00:32:42.543Z,13.10
2022-10-21T00:35:11.900Z,13.10
2022-10-21T00:37:40.053Z,13.10
2022-10-21T00:40:08.860Z,13.20
2022-10-21T00:42:43.690Z,13.30
2022-10-21T00:45:19.242Z,13.50
2022-10-21T00:47:50.050Z,13.60
2022-10-21T00:50:25.723Z,13.70
2022-10-21T00:52:54.095Z,13.80
2022-10-21T00:55:22.523Z,13.90
2022-10-21T00:57:51.168Z,13.90
2022-10-21T01:00:19.279Z,13.90
2022-10-21T01:02:47.321Z,13.90
2022-10-21T01:05:15.811Z,13.80
2022-10-21T01:07:47.525Z,13.70
2022-10-21T01:10:15.976Z,13.70
2022-10-21T01:12:49.638Z,13.60
2022-10-21T01:15:19.795Z,13.60
2022-10-21T01:17:49.727Z,13.70
2022-10-21T01:20:40.001Z,13.70
2022-10-21T01:23:26.471Z,13.80
2022-10-21T01:26:09.908Z,13.80
2022-10-21T01:28:43.506Z,13.90
2022-10-21T01:31:16.723Z,13.90
2022-10-21T01:33:46.405Z,13.90
2022-10-21T01:36:21.384Z,14.00
2022-10-21T01:38:55.281Z,14.00
2022-10-21T01:41:26.663Z,13.90
2022-10-21T01:43:57.755Z,13.90
2022-10-21T01:46:29.120Z,14.00
2022-10-21T01:49:01.619Z,14.00
2022-10-21T01:51:30.140Z,14.00
2022-10-21T01:54:01.062Z,14.00
2022-10-21T01:56:29.096Z,14.00
2022-10-21T01:58:57.439Z,14.00
2022-10-21T02:01:25.675Z,14.00
2022-10-21T02:03:56.503Z,13.90
2022-10-21T02:06:25.300Z,13.70
2022-10-21T02:08:53.236Z,13.70
2022-10-21T02:11:21.303Z,13.70
2022-10-21T02:13:50.436Z,13.80
2022-10-21T02:16:19.495Z,13.80
2022-10-21T02:18:47.311Z,13.80
2022-10-21T02:21:19.517Z,13.80
2022-10-21T02:23:52.115Z,13.80
2022-10-21T02:26:20.329Z,13.90
2022-10-21T02:28:48.455Z,13.90
2022-10-21T02:31:20.375Z,13.90
2022-10-21T02:33:52.926Z,14.00
2022-10-21T02:36:26.694Z,14.00
2022-10-21T02:38:56.195Z,14.00
2022-10-21T02:41:26.375Z,14.00
2022-10-21T02:43:55.525Z,14.00
2022-10-21T02:46:23.473Z,14.00
2022-10-21T02:48:51.375Z,14.00
2022-10-21T02:51:19.198Z,14.00
2022-10-21T02:53:48.387Z,14.10
2022-10-21T02:56:16.216Z,14.10
2022-10-21T02:58:44.070Z,14.20
2022-10-21T03:01:11.920Z,14.20
2022-10-21T03:03:39.869Z,14.20
2022-10-21T03:06:07.734Z,14.20
2022-10-21T03:08:35.753Z,14.30
2022-10-21T03:11:05.146Z,14.30
2022-10-21T03:13:33.011Z,14.20
2022-10-21T03:16:00.825Z,14.20
2022-10-21T03:18:28.625Z,14.20
2022-10-21T03:20:56.420Z,14.10
2022-10-21T03:23:24.376Z,14.10
2022-10-21T03:25:52.233Z,14.10
2022-10-21T03:28:22.359Z,14.10
2022-10-21T03:30:50.240Z,14.10
2022-10-21T03:33:18.176Z,14.20
2022-10-21T03:35:45.960Z,14.30
2022-10-21T03:38:13.855Z,14.30
2022-10-21T03:40:41.735Z,14.40
2022-10-21T03:43:10.380Z,14.40
2022-10-21T03:45:39.551Z,14.40
2022-10-21T03:48:07.415Z,14.40
2022-10-21T03:50:35.333Z,14.40
2022-10-21T03:53:13.472Z,14.40
2022-10-21T03:55:41.496Z,14.40
2022-10-21T03:58:09.365Z,14.40
2022-10-21T04:00:37.195Z,14.40
2022-10-21T04:03:06.567Z,14.40
2022-10-21T04:05:34.556Z,14.40
2022-10-21T04:08:02.504Z,14.30
2022-10-21T04:10:30.348Z,14.30
2022-10-21T04:12:58.261Z,14.30
2022-10-21T04:15:26.216Z,14.30
2022-10-21T04:17:54.064Z,14.30
2022-10-21T04:20:24.007Z,14.30
2022-10-21T04:22:51.982Z,14.30
2022-10-21T04:25:19.876Z,14.30
2022-10-21T04:27:47.821Z,14.20
2022-10-21T04:30:15.752Z,14.10
2022-10-21T04:32:43.785Z,14.10
2022-10-21T04:35:11.659Z,14.10
2022-10-21T04:37:41.011Z,14.10
2022-10-21T04:40:09.805Z,14.00
2022-10-21T04:42:37.696Z,14.10
2022-10-21T04:45:05.837Z,14.10
2022-10-21T04:47:33.675Z,14.10
2022-10-21T04:50:01.468Z,14.10
2022-10-21T04:52:29.341Z,14.10
2022-10-21T04:54:58.639Z,14.10
2022-10-21T04:57:26.696Z,14.00
2022-10-21T04:59:54.531Z,14.00
2022-10-21T05:02:25.290Z,14.00
2022-10-21T05:04:53.555Z,13.90
2022-10-21T05:07:21.460Z,13.90
2022-10-21T05:09:49.259Z,14.00
2022-10-21T05:12:18.441Z,13.90
2022-10-21T05:14:46.384Z,13.90
2022-10-21T05:17:14.260Z,13.90
2022-10-21T05:19:42.195Z,13.90
2022-10-21T05:22:10.155Z,13.90
2022-10-21T05:24:38.076Z,13.90
2022-10-21T05:27:05.959Z,13.90
2022-10-21T05:29:35.143Z,13.80
2022-10-21T05:32:03.032Z,13.70
2022-10-21T05:34:30.926Z,13.70
2022-10-21T05:36:58.966Z,13.70
2022-10-21T05:39:27.058Z,13.70
2022-10-21T05:41:55.082Z,13.70
2022-10-21T05:44:22.981Z,13.70
2022-10-21T05:46:52.269Z,13.70
2022-10-21T05:49:20.077Z,13.80
2022-10-21T05:51:48.022Z,13.80
2022-10-21T05:54:15.885Z,13.90
2022-10-21T05:56:43.745Z,13.80
2022-10-21T05:59:11.872Z,13.80
2022-10-21T06:01:40.321Z,13.90
2022-10-21T06:04:09.741Z,13.90
2022-10-21T06:06:37.715Z,14.00
2022-10-21T06:09:05.815Z,14.00
2022-10-21T06:11:33.861Z,14.00
2022-10-21T06:14:03.122Z,14.10
2022-10-21T06:16:35.129Z,14.10
2022-10-21T06:19:03.062Z,14.10
2022-10-21T06:21:32.266Z,14.20
2022-10-21T06:24:00.105Z,14.20
2022-10-21T06:26:29.305Z,14.20
2022-10-21T06:28:59.038Z,14.10
2022-10-21T06:31:26.880Z,14.10
2022-10-21T06:33:54.735Z,14.10
2022-10-21T06:36:22.582Z,14.10
2022-10-21T06:38:51.837Z,14.10
2022-10-21T06:41:19.714Z,14.00
2022-10-21T06:43:47.616Z,14.00
2022-10-21T06:46:16.054Z,13.90
2022-10-21T06:48:43.905Z,13.80
2022-10-21T06:51:12.985Z,13.80
2022-10-21T06:53:40.942Z,13.90
2022-10-21T06:56:11.202Z,13.90
2022-10-21T06:58:43.169Z,14.00
2022-10-21T07:01:21.532Z,14.00
2022-10-21T07:04:00.097Z,14.00
2022-10-21T07:06:28.040Z,14.00
2022-10-21T07:08:59.384Z,14.00
2022-10-21T07:11:28.987Z,14.00
2022-10-21T07:16:45.361Z,14.00
2022-10-21T07:19:33.919Z,13.90
2022-10-21T07:22:02.238Z,13.90
2022-10-21T07:24:30.077Z,13.80
2022-10-21T07:26:59.233Z,13.90
2022-10-21T07:29:27.140Z,14.00
2022-10-21T07:31:55.025Z,14.10
2022-10-21T07:40:14.551Z,14.40
2022-10-21T07:43:04.251Z,14.40
2022-10-21T07:45:33.543Z,14.40
2022-10-21T07:50:51.715Z,14.50
2022-10-21T07:53:21.644Z,14.60
2022-10-21T07:58:46.931Z,14.70
2022-10-21T08:01:17.658Z,14.70
2022-10-21T08:03:45.995Z,14.80
2022-10-21T08:06:15.426Z,14.90
2022-10-21T08:08:44.014Z,14.90
2022-10-21T08:11:12.164Z,15.00
2022-10-21T08:13:43.221Z,15.00
2022-10-21T08:16:11.132Z,15.00
2022-10-21T08:21:22.329Z,15.10
2022-10-21T08:23:50.309Z,15.10
2022-10-21T08:26:18.275Z,15.20
2022-10-21T08:28:46.267Z,15.20
2022-10-21T08:31:15.366Z,15.30
2022-10-21T08:33:43.426Z,15.30
2022-10-21T08:36:13.661Z,15.40
2022-10-21T08:38:42.993Z,15.40
2022-10-21T08:41:27.081Z,15.40
2022-10-21T08:43:55.580Z,15.50
2022-10-21T08:46:25.561Z,15.50
2022-10-21T08:51:52.433Z,15.50
2022-10-21T09:00:07.777Z,15.60
2022-10-21T09:02:50.838Z,15.50
2022-10-21T09:08:04.658Z,15.60
2022-10-21T09:10:42.444Z,15.70
2022-10-21T09:13:13.926Z,15.70
2022-10-21T09:15:48.747Z,15.80
2022-10-21T09:21:16.281Z,15.80
2022-10-21T09:23:52.377Z,15.80
2022-10-21T09:26:30.294Z,15.80
2022-10-21T09:32:02.085Z,16.00
2022-10-21T09:34:36.259Z,16.00
2022-10-21T09:37:06.442Z,16.10
2022-10-21T09:39:37.049Z,16.10
2022-10-21T09:42:11.532Z,16.20
2022-10-21T09:50:39.789Z,16.20
2022-10-21T09:53:10.322Z,16.10
2022-10-21T09:55:39.605Z,16.10
2022-10-21T09:58:07.562Z,16.10
2022-10-21T10:00:42.793Z,16.00
2022-10-21T10:03:11.232Z,16.00
2022-10-21T10:05:43.651Z,16.00
2022-10-21T10:08:22.352Z,15.90
2022-10-21T10:10:50.236Z,16.00
2022-10-21T10:13:24.430Z,16.00
2022-10-21T10:15:52.395Z,16.00
2022-10-21T10:18:21.083Z,16.00
2022-10-21T10:21:04.642Z,16.00
2022-10-21T10:23:43.154Z,16.10
2022-10-21T10:26:18.027Z,16.20
2022-10-21T10:28:49.716Z,16.20
2022-10-21T10:31:23.998Z,16.30
2022-10-21T10:33:58.773Z,16.30
2022-10-21T10:36:31.095Z,16.40
2022-10-21T10:39:00.604Z,16.50
2022-10-21T10:44:35.194Z,16.40
2022-10-21T10:47:03.980Z,16.40
2022-10-21T10:49:36.450Z,16.30
2022-10-21T10:52:08.310Z,16.30
2022-10-21T10:54:36.911Z,16.30
2022-10-21T10:57:06.874Z,16.30
2022-10-21T10:59:41.047Z,16.20
2022-10-21T11:02:28.519Z,16.30
2022-10-21T11:05:06.938Z,16.30
2022-10-21T11:07:39.207Z,16.20
2022-10-21T11:10:09.453Z,16.20
2022-10-21T11:12:38.344Z,16.10
2022-10-21T11:15:09.722Z,16.10
2022-10-21T11:17:41.029Z,16.00
2022-10-21T11:20:15.656Z,16.00
2022-10-21T11:22:50.048Z,16.00
2022-10-21T11:25:22.220Z,16.00
2022-10-21T11:28:04.573Z,16.00
2022-10-21T11:30:35.389Z,16.10
2022-10-21T11:33:08.365Z,16.20
2022-10-21T11:35:43.101Z,16.30
2022-10-21T11:38:31.248Z,16.40
2022-10-21T11:41:03.885Z,16.40
2022-10-21T11:43:36.623Z,16.50
2022-10-21T11:46:06.044Z,16.60
2022-10-21T11:48:41.033Z,16.80
2022-10-21T11:51:16.604Z,17.20
2022-10-21T11:53:52.364Z,17.30
2022-10-21T11:56:28.131Z,17.60
2022-10-21T11:59:02.134Z,18.00
2022-10-21T12:01:34.036Z,18.70
2022-10-21T12:04:08.878Z,19.80
2022-10-21T12:06:42.991Z,20.80
2022-10-21T12:09:16.703Z,21.20
2022-10-21T12:11:46.453Z,21.20
2022-10-21T12:14:21.042Z,20.80
2022-10-21T12:16:49.484Z,20.50
2022-10-21T12:19:17.975Z,20.60
2022-10-21T12:21:46.759Z,20.70
2022-10-21T12:24:22.802Z,20.60
2022-10-21T12:26:52.652Z,20.40
2022-10-21T12:29:23.621Z,20.20
2022-10-21T12:31:58.779Z,20.60
2022-10-21T12:34:26.766Z,21.00
2022-10-21T12:36:54.806Z,20.70
2022-10-21T12:39:37.587Z,20.50
2022-10-21T12:42:07.916Z,20.60
2022-10-21T12:44:38.404Z,20.60
2022-10-21T12:47:23.105Z,20.50
2022-10-21T12:50:04.783Z,20.20
2022-10-21T12:52:38.309Z,19.90
2022-10-21T12:55:08.683Z,19.90
2022-10-21T12:57:39.041Z,19.70
2022-10-21T13:00:17.695Z,19.60
2022-10-21T13:02:58.365Z,19.30
2022-10-21T13:05:45.139Z,19.00
2022-10-21T13:08:24.480Z,19.00
2022-10-21T13:11:07.431Z,19.10
2022-10-21T13:13:37.609Z,19.20
2022-10-21T13:16:24.357Z,19.30
2022-10-21T13:18:53.440Z,19.20
2022-10-21T13:21:32.138Z,19.30
2022-10-21T13:24:06.440Z,19.40
2022-10-21T13:26:34.556Z,19.30
2022-10-21T13:29:17.495Z,19.50
2022-10-21T13:31:46.937Z,19.70
2022-10-21T13:34:28.056Z,19.90
2022-10-21T13:36:56.948Z,19.80
2022-10-21T13:39:27.417Z,19.60
2022-10-21T13:42:00.878Z,19.40
2022-10-21T13:44:30.986Z,19.20
2022-10-21T13:47:18.457Z,19.10
2022-10-21T13:49:50.774Z,18.90
2022-10-21T13:52:18.721Z,18.70
2022-10-21T13:54:46.688Z,18.60
2022-10-21T13:57:16.927Z,18.60
2022-10-21T13:59:44.867Z,18.60
2022-10-21T14:02:25.823Z,18.60
2022-10-21T14:04:53.851Z,18.60
2022-10-21T14:07:22.123Z,18.50
2022-10-21T14:09:51.716Z,18.50
2022-10-21T14:12:21.726Z,18.50
2022-10-21T14:14:50.560Z,18.50
2022-10-21T14:17:20.064Z,18.50
2022-10-21T14:19:51.635Z,18.50
2022-10-21T14:22:20.979Z,18.60
2022-10-21T14:24:50.016Z,18.70
2022-10-21T14:27:19.607Z,18.70
2022-10-21T14:29:47.971Z,18.70
2022-10-21T14:32:16.903Z,18.60
2022-10-21T14:34:58.951Z,18.60
2022-10-21T14:37:26.993Z,18.60
2022-10-21T14:39:55.128Z,18.50
2022-10-21T14:42:25.164Z,18.50
2022-10-21T14:44:54.817Z,18.50
2022-10-21T14:47:24.226Z,18.60
2022-10-21T14:49:53.615Z,18.60
2022-10-21T14:52:24.334Z,18.50
2022-10-21T14:54:55.605Z,18.30
2022-10-21T14:57:29.394Z,18.30
2022-10-21T14:59:57.735Z,18.20
2022-10-21T15:02:27.885Z,18.20
2022-10-21T15:04:57.084Z,18.10
2022-10-21T15:07:29.635Z,18.00
2022-10-21T15:09:58.902Z,18.00
2022-10-21T15:12:26.852Z,17.90
2022-10-21T15:14:54.737Z,17.90
2022-10-21T15:17:23.484Z,17.90
2022-10-21T15:19:52.515Z,17.90
2022-10-21T15:22:24.125Z,17.80
2022-10-21T15:24:53.902Z,17.80
2022-10-21T15:27:26.505Z,17.70
2022-10-21T15:29:54.646Z,17.70
2022-10-21T15:32:26.831Z,17.60
2022-10-21T15:34:56.187Z,17.60
2022-10-21T15:37:24.082Z,17.60
2022-10-21T15:39:53.304Z,17.50
2022-10-21T15:42:21.641Z,17.50
2022-10-21T15:44:50.421Z,17.40
2022-10-21T15:47:18.631Z,17.30
2022-10-21T15:49:47.310Z,17.30
2022-10-21T15:52:15.294Z,17.30
2022-10-21T15:54:43.217Z,17.30
2022-10-21T15:57:18.267Z,17.30
2022-10-21T15:59:46.620Z,17.20
2022-10-21T16:02:17.154Z,17.20
2022-10-21T16:04:46.017Z,17.20
2022-10-21T16:07:19.504Z,17.20
2022-10-21T16:09:47.545Z,17.10
2022-10-21T16:12:17.404Z,17.10
2022-10-21T16:14:45.261Z,17.10
2022-10-21T16:17:13.350Z,17.00
2022-10-21T16:19:41.354Z,17.00
2022-10-21T16:22:12.559Z,17.00
2022-10-21T16:24:41.092Z,16.90
2022-10-21T16:27:11.220Z,16.90
2022-10-21T16:29:40.501Z,16.90
2022-10-21T16:32:08.478Z,16.90
2022-10-21T16:34:36.462Z,16.80
2022-10-21T16:37:08.310Z,16.80
2022-10-21T16:39:37.963Z,16.80
2022-10-21T16:42:05.869Z,16.80
2022-10-21T16:44:33.749Z,16.70
2022-10-21T16:47:03.395Z,16.70
2022-10-21T16:49:31.256Z,16.70
2022-10-21T16:52:00.615Z,16.70
2022-10-21T16:54:28.855Z,16.60
2022-10-21T16:56:56.810Z,16.60
2022-10-21T16:59:24.802Z,16.50
2022-10-21T17:01:52.747Z,16.50
2022-10-21T17:04:22.274Z,16.50
2022-10-21T17:06:50.200Z,16.50
2022-10-21T17:09:19.361Z,16.50
2022-10-21T17:11:47.546Z,16.50
2022-10-21T17:14:16.936Z,16.50
2022-10-21T17:16:45.372Z,16.40
2022-10-21T17:19:13.265Z,16.40
2022-10-21T17:21:42.619Z,16.40
2022-10-21T17:24:13.351Z,16.30
2022-10-21T17:26:41.407Z,16.30
2022-10-21T17:29:10.795Z,16.20
2022-10-21T17:31:39.242Z,16.20
2022-10-21T17:34:08.118Z,16.10
2022-10-21T17:36:36.530Z,16.10
2022-10-21T17:39:06.167Z,16.10
2022-10-21T17:41:34.146Z,16.10
2022-10-21T17:44:03.302Z,16.10
2022-10-21T17:46:31.318Z,16.10
2022-10-21T17:48:59.549Z,16.10
2022-10-21T17:51:27.730Z,16.10
2022-10-21T17:53:55.985Z,16.00
2022-10-21T17:56:25.351Z,16.00
2022-10-21T17:58:54.185Z,16.00
2022-10-21T18:01:23.642Z,16.00
2022-10-21T18:03:52.019Z,15.90
2022-10-21T18:06:20.627Z,15.90
2022-10-21T18:08:48.793Z,15.90
2022-10-21T18:11:17.974Z,15.80
2022-10-21T18:13:52.062Z,15.80
2022-10-21T18:16:24.216Z,15.80
2022-10-21T18:18:56.125Z,15.90
2022-10-21T18:21:26.669Z,15.90
2022-10-21T18:23:54.667Z,16.00
2022-10-21T18:26:25.222Z,16.00
2022-10-21T18:28:57.001Z,16.10
2022-10-21T18:31:26.160Z,16.00
2022-10-21T18:33:55.392Z,16.10
2022-10-21T18:36:23.710Z,16.00
2022-10-21T18:38:51.924Z,16.00
2022-10-21T18:41:21.334Z,16.10
2022-10-21T18:43:50.106Z,16.10
2022-10-21T18:46:19.601Z,16.10
2022-10-21T18:48:47.861Z,16.10
2022-10-21T18:51:17.693Z,16.20
2022-10-21T18:53:48.595Z,16.20
2022-10-21T18:56:20.738Z,16.20
2022-10-21T18:58:48.676Z,16.20
2022-10-21T19:01:16.962Z,16.10
2022-10-21T19:03:46.331Z,16.10
2022-10-21T19:06:15.905Z,16.00
2022-10-21T19:08:46.407Z,16.00
2022-10-21T19:11:15.305Z,16.00
2022-10-21T19:13:43.159Z,16.00
2022-10-21T19:16:11.411Z,16.00
2022-10-21T19:18:39.357Z,16.00
2022-10-21T19:21:08.736Z,16.00
2022-10-21T19:23:38.286Z,16.00
2022-10-21T19:26:07.019Z,16.00
2022-10-21T19:28:35.280Z,16.00
2022-10-21T19:31:03.612Z,16.00
2022-10-21T19:33:31.786Z,16.00
2022-10-21T19:36:00.169Z,16.00
2022-10-21T19:38:43.634Z,16.00
2022-10-21T19:41:13.650Z,16.00
2022-10-21T19:43:41.564Z,16.00
2022-10-21T19:46:10.431Z,16.00
2022-10-21T19:48:38.674Z,16.00
2022-10-21T19:51:07.975Z,16.00
2022-10-21T19:53:39.102Z,16.00
2022-10-21T19:56:07.346Z,16.10
2022-10-21T19:58:35.607Z,16.10
2022-10-21T20:01:04.600Z,16.10
2022-10-21T20:03:32.639Z,16.10
2022-10-21T20:06:00.567Z,16.10
2022-10-21T20:08:28.595Z,16.10
2022-10-21T20:11:01.774Z,16.10
2022-10-21T20:13:30.369Z,16.00
2022-10-21T20:15:59.073Z,16.00
2022-10-21T20:18:27.732Z,16.00
2022-10-21T20:20:56.111Z,16.00
2022-10-21T20:23:23.965Z,16.00
2022-10-21T20:25:53.764Z,16.00
2022-10-21T20:28:23.127Z,16.00
2022-10-21T20:31:01.663Z,16.00
2022-10-21T20:33:30.456Z,16.00
2022-10-21T20:35:58.647Z,16.00
2022-10-21T20:38:26.557Z,16.00
2022-10-21T20:40:54.750Z,16.00
2022-10-21T20:43:25.646Z,16.00
2022-10-21T20:45:53.788Z,16.00
2022-10-21T20:48:21.787Z,16.00
2022-10-21T20:50:50.144Z,15.90
2022-10-21T20:53:18.119Z,15.90
2022-10-21T20:55:55.368Z,15.90
2022-10-21T20:58:25.718Z,15.90
2022-10-21T21:00:53.781Z,15.90
2022-10-21T21:03:21.767Z,15.90
2022-10-21T21:05:49.780Z,15.90
2022-10-21T21:08:18.163Z,15.80
2022-10-21T21:10:46.126Z,15.90
2022-10-21T21:13:14.140Z,15.90
2022-10-21T21:15:43.500Z,15.90
2022-10-21T21:18:14.125Z,16.00
2022-10-21T21:20:42.031Z,16.00
2022-10-21T21:23:09.956Z,16.00
2022-10-21T21:25:37.854Z,16.00
2022-10-21T21:28:05.764Z,16.00
2022-10-21T21:30:33.866Z,16.00
2022-10-21T21:33:03.111Z,16.00
2022-10-21T21:35:31.031Z,16.10
2022-10-21T21:37:58.949Z,16.10
2022-10-21T21:40:26.998Z,16.10
2022-10-21T21:42:54.939Z,16.00
2022-10-21T21:45:22.909Z,15.90
2022-10-21T21:47:50.814Z,15.90
2022-10-21T21:50:20.159Z,15.90
2022-10-21T21:52:48.145Z,15.90
2022-10-21T21:55:16.061Z,15.90
2022-10-21T21:57:44.028Z,15.80
2022-10-21T22:00:12.877Z,15.90
2022-10-21T22:02:40.738Z,15.90
2022-10-21T22:05:09.955Z,15.90
2022-10-21T22:07:39.399Z,15.80
2022-10-21T22:10:07.807Z,15.90
2022-10-21T22:12:35.760Z,15.90
2022-10-21T22:15:04.153Z,16.00
2022-10-21T22:17:32.039Z,16.00
2022-10-21T22:19:59.863Z,16.10
2022-10-21T22:22:27.898Z,16.10
2022-10-21T22:24:57.114Z,16.10
2022-10-21T22:27:25.007Z,16.10
2022-10-21T22:29:53.059Z,16.20
2022-10-21T22:32:21.028Z,16.20
2022-10-21T22:34:49.008Z,16.30
2022-10-21T22:37:16.970Z,16.40
2022-10-21T22:39:44.849Z,16.40
2022-10-21T22:42:14.079Z,16.40
2022-10-21T22:44:41.949Z,16.40
2022-10-21T22:47:09.765Z,16.40
2022-10-21T22:49:37.597Z,16.40
2022-10-21T22:52:05.552Z,16.40
2022-10-21T22:54:48.728Z,16.40
2022-10-21T22:57:19.087Z,16.40
2022-10-21T22:59:52.073Z,16.40
2022-10-21T23:02:21.113Z,16.40
2022-10-21T23:04:49.091Z,16.40
2022-10-21T23:07:17.096Z,16.30
2022-10-21T23:09:44.919Z,16.20
2022-10-21T23:12:12.834Z,16.20
2022-10-21T23:14:42.085Z,16.20
2022-10-21T23:17:10.052Z,16.10
2022-10-21T23:19:37.923Z,16.10
2022-10-21T23:22:05.701Z,16.10
2022-10-21T23:24:33.513Z,16.10
2022-10-21T23:27:01.602Z,16.20
2022-10-21T23:29:29.491Z,16.20
2022-10-21T23:31:58.853Z,16.20
2022-10-21T23:34:26.713Z,16.20
2022-10-21T23:36:54.528Z,16.30
2022-10-21T23:39:22.478Z,16.20
2022-10-21T23:41:50.403Z,16.20
2022-10-21T23:44:18.278Z,16.20
2022-10-21T23:46:46.291Z,16.10
2022-10-21T23:49:15.729Z,16.10
2022-10-21T23:51:43.568Z,16.00
2022-10-21T23:54:11.393Z,16.00
2022-10-21T23:56:39.248Z,16.00
2022-10-21T23:59:07.601Z,16.00
